Time;durP1;ratioP1;P1;durP2;ratioP2;P2;SDS_P1;SDS_P2;PMS_P1;PMS_P2;Temp;Humidity;BMP_temperature;BMP_pressure;BME280_temperature;BME280_humidity;BME280_pressure;Samples;Min_cycle;Max_cycle;Signal;HPM_P1;HPM_P2
2024/04/12 00:01:48;;;;;;;12.67;8.30;;;6.80;99.90;;;;;;5477310;26;20521;-84
2024/04/12 00:04:16;;;;;;;12.80;8.07;;;6.70;99.90;;;;;;5479362;26;20010;-83
2024/04/12 00:06:49;;;;;;;9.33;8.33;;;6.60;99.90;;;;;;5479270;26;20006;-84
2024/04/12 00:09:18;;;;;;;11.80;9.07;;;6.50;99.90;;;;;;5477740;26;20013;-84
2024/04/12 00:11:44;;;;;;;9.60;8.47;;;6.50;99.90;;;;;;5478727;26;20020;-84
2024/04/12 00:14:15;;;;;;;16.03;8.97;;;6.50;99.90;;;;;;5479563;26;20010;-84
2024/04/12 00:16:43;;;;;;;12.90;8.47;;;6.50;99.90;;;;;;5476337;26;20439;-84
2024/04/12 00:19:12;;;;;;;12.17;8.37;;;6.50;99.90;;;;;;5477393;26;20018;-84
2024/04/12 00:21:41;;;;;;;12.77;8.23;;;6.40;99.90;;;;;;5446596;26;20043;-84
2024/04/12 00:24:11;;;;;;;11.17;8.30;;;6.40;99.90;;;;;;5475861;26;20009;-84
2024/04/12 00:26:37;;;;;;;16.90;8.80;;;6.50;99.90;;;;;;5478368;26;21535;-84
2024/04/12 00:29:07;;;;;;;11.47;8.23;;;6.40;99.90;;;;;;5480869;26;19994;-84
2024/04/12 00:31:42;;;;;;;11.63;8.60;;;6.40;99.90;;;;;;5481979;26;20042;-84
2024/04/12 00:34:08;;;;;;;10.23;8.13;;;6.40;99.90;;;;;;5479137;26;19998;-83
2024/04/12 00:36:34;;;;;;;13.03;8.87;;;6.40;99.90;;;;;;5477924;26;20017;-84
2024/04/12 00:39:01;;;;;;;13.53;9.27;;;6.40;99.90;;;;;;5478503;26;19999;-84
2024/04/12 00:41:26;;;;;;;15.00;9.17;;;6.40;99.90;;;;;;5478523;26;20082;-84
2024/04/12 00:43:52;;;;;;;11.40;7.90;;;6.40;99.90;;;;;;5478600;26;20014;-84
2024/04/12 00:46:24;;;;;;;13.40;8.47;;;6.40;99.90;;;;;;5476792;26;20091;-83
2024/04/12 00:48:52;;;;;;;11.37;8.23;;;6.40;99.90;;;;;;5477793;26;20006;-84
2024/04/12 00:51:18;;;;;;;13.53;8.57;;;6.40;99.90;;;;;;5477773;26;20009;-84
2024/04/12 00:53:56;;;;;;;12.40;9.73;;;6.50;99.90;;;;;;5479284;26;20355;-84
2024/04/12 00:56:23;;;;;;;12.93;9.57;;;6.50;99.90;;;;;;5478342;26;20113;-84
2024/04/12 00:58:48;;;;;;;12.50;9.20;;;6.50;99.90;;;;;;5477998;26;20038;-84
2024/04/12 01:01:18;;;;;;;16.00;10.17;;;6.50;99.90;;;;;;5476711;26;20006;-84
2024/04/12 01:03:54;;;;;;;15.87;11.30;;;6.50;99.90;;;;;;5445578;26;19994;-84
2024/04/12 01:06:24;;;;;;;13.80;10.53;;;6.50;99.90;;;;;;5476501;26;20009;-84
2024/04/12 01:08:51;;;;;;;12.43;9.57;;;6.50;99.90;;;;;;5445427;26;20085;-84
2024/04/12 01:11:22;;;;;;;13.10;10.13;;;6.50;99.90;;;;;;5477383;26;20002;-84
2024/04/12 01:13:49;;;;;;;18.27;10.33;;;6.50;99.90;;;;;;5445197;26;19997;-84
2024/04/12 01:16:15;;;;;;;13.40;10.57;;;6.50;99.90;;;;;;5477064;26;20006;-84
2024/04/12 01:18:43;;;;;;;15.00;10.13;;;6.50;99.90;;;;;;5448709;26;20002;-84
2024/04/12 01:21:12;;;;;;;13.80;9.43;;;6.50;99.90;;;;;;5477706;26;20010;-84
2024/04/12 01:23:42;;;;;;;11.57;9.63;;;6.50;99.90;;;;;;5478342;26;20070;-84
2024/04/12 01:26:13;;;;;;;19.27;11.50;;;6.50;99.90;;;;;;5475872;26;20010;-84
2024/04/12 01:28:42;;;;;;;13.50;10.67;;;6.50;99.90;;;;;;5446311;26;20006;-84
2024/04/12 01:31:08;;;;;;;16.53;10.27;;;6.50;99.90;;;;;;5478092;26;20006;-84
2024/04/12 01:33:36;;;;;;;16.47;11.47;;;6.50;99.90;;;;;;5478492;26;20015;-84
2024/04/12 01:36:05;;;;;;;16.80;11.77;;;6.50;99.90;;;;;;5476532;26;20070;-84
2024/04/12 01:38:37;;;;;;;20.23;12.50;;;6.50;99.90;;;;;;5444136;26;19994;-85
2024/04/12 01:41:05;;;;;;;17.90;12.37;;;6.50;99.90;;;;;;5477938;26;20009;-84
2024/04/12 01:43:36;;;;;;;15.60;11.57;;;6.50;99.90;;;;;;5477573;26;20010;-84
2024/04/12 01:46:07;;;;;;;14.87;11.80;;;6.40;99.90;;;;;;5477718;26;20006;-84
2024/04/12 01:48:34;;;;;;;15.07;11.87;;;6.40;99.90;;;;;;5476068;26;20566;-84
2024/04/12 01:51:03;;;;;;;16.67;11.77;;;6.40;99.90;;;;;;5477097;26;20014;-84
2024/04/12 01:53:38;;;;;;;14.77;10.70;;;6.40;99.90;;;;;;5477904;26;19991;-84
2024/04/12 01:56:13;;;;;;;15.02;10.07;;;6.30;99.90;;;;;;5474970;26;20006;-84
2024/04/12 01:58:40;;;;;;;12.77;9.47;;;6.20;99.90;;;;;;5446487;26;20038;-84
2024/04/12 02:01:10;;;;;;;13.00;8.73;;;6.20;99.90;;;;;;5476644;26;20006;-84
2024/04/12 02:03:37;;;;;;;14.83;10.53;;;6.20;99.90;;;;;;5477506;26;20010;-85
2024/04/12 02:06:04;;;;;;;15.40;9.63;;;6.10;99.90;;;;;;5476525;26;19990;-84
2024/04/12 02:08:33;;;;;;;14.13;9.20;;;6.00;99.90;;;;;;5474888;26;20013;-85
2024/04/12 02:11:05;;;;;;;13.07;9.07;;;6.00;99.90;;;;;;5468779;26;19998;-84
2024/04/12 02:13:35;;;;;;;17.00;9.27;;;5.90;99.90;;;;;;5478939;26;20010;-84
2024/04/12 02:16:02;;;;;;;12.47;8.73;;;5.80;99.90;;;;;;5477144;26;20026;-84
2024/04/12 02:18:33;;;;;;;13.13;9.73;;;5.80;99.90;;;;;;5476564;26;20005;-84
2024/04/12 02:21:05;;;;;;;11.97;8.90;;;5.70;99.90;;;;;;5476590;26;19994;-84
2024/04/12 02:23:34;;;;;;;10.17;8.57;;;5.60;99.90;;;;;;5476163;26;20009;-84
2024/04/12 02:26:01;;;;;;;13.00;9.80;;;5.60;99.90;;;;;;5476051;26;20625;-84
2024/04/12 02:28:27;;;;;;;12.63;8.50;;;5.60;99.90;;;;;;5477149;26;19994;-84
2024/04/12 02:30:57;;;;;;;11.10;8.97;;;5.60;99.90;;;;;;5443043;26;20047;-84
2024/04/12 02:33:30;;;;;;;12.77;8.23;;;5.60;99.90;;;;;;5476760;26;20001;-84
2024/04/12 02:36:08;;;;;;;12.70;8.63;;;5.50;99.90;;;;;;5475230;26;20148;-84
2024/04/12 02:38:36;;;;;;;11.67;8.53;;;5.50;99.90;;;;;;5475866;26;20009;-83
2024/04/12 02:41:02;;;;;;;12.27;8.13;;;5.50;99.90;;;;;;5474019;26;20008;-84
2024/04/12 02:43:29;;;;;;;10.67;8.53;;;5.50;99.90;;;;;;5478548;26;20002;-84
2024/04/12 02:45:59;;;;;;;13.73;10.10;;;5.50;99.90;;;;;;5476224;26;19995;-84
2024/04/12 02:48:25;;;;;;;17.17;9.13;;;5.50;99.90;;;;;;5475009;26;20026;-84
2024/04/12 02:50:54;;;;;;;15.13;9.47;;;5.50;99.90;;;;;;5474427;26;20013;-85
2024/04/12 02:53:27;;;;;;;12.47;9.53;;;5.50;99.90;;;;;;5443886;26;20038;-84
2024/04/12 02:56:09;;;;;;;13.63;10.43;;;5.50;99.90;;;;;;5475922;26;21266;-84
2024/04/12 02:58:39;;;;;;;14.97;9.57;;;5.50;99.90;;;;;;5475396;26;20002;-83
2024/04/12 03:01:07;;;;;;;12.10;10.10;;;5.50;99.90;;;;;;5476811;26;19998;-85
2024/04/12 03:03:39;;;;;;;14.07;10.60;;;5.50;99.90;;;;;;5475834;26;20559;-83
2024/04/12 03:06:09;;;;;;;14.13;10.00;;;5.50;99.90;;;;;;5475180;26;20003;-85
2024/04/12 03:08:36;;;;;;;14.17;10.43;;;5.50;99.90;;;;;;5476677;26;19999;-85
2024/04/12 03:11:22;;;;;;;16.83;10.07;;;5.50;99.90;;;;;;5475805;26;19990;-84
2024/04/12 03:14:09;;;;;;;12.97;9.37;;;5.50;99.90;;;;;;5445625;26;20013;-84
2024/04/12 03:16:42;;;;;;;14.17;8.63;;;5.50;99.90;;;;;;5476563;26;20398;-84
2024/04/12 03:19:10;;;;;;;13.53;9.00;;;5.50;99.90;;;;;;5476161;26;19999;-84
2024/04/12 03:21:37;;;;;;;15.23;10.30;;;5.40;99.90;;;;;;5480088;26;20002;-85
2024/04/12 03:24:04;;;;;;;13.47;10.37;;;5.40;99.90;;;;;;5478238;26;20002;-84
2024/04/12 03:26:30;;;;;;;17.47;11.17;;;5.40;99.90;;;;;;5478612;26;20006;-84
2024/04/12 03:28:59;;;;;;;16.07;11.77;;;5.30;99.90;;;;;;5479056;26;20008;-84
2024/04/12 03:31:26;;;;;;;17.20;11.83;;;5.30;99.90;;;;;;5481424;26;20020;-84
2024/04/12 03:33:54;;;;;;;16.27;12.03;;;5.30;99.90;;;;;;5478308;26;19999;-83
2024/04/12 03:41:53;;;;;;;17.73;11.77;;;5.40;99.90;;;;;;5479651;26;19995;-84
2024/04/12 03:44:18;;;;;;;18.10;10.63;;;5.40;99.90;;;;;;5479257;26;20048;-83
2024/04/12 03:46:49;;;;;;;17.50;10.80;;;5.40;99.90;;;;;;5478709;26;20018;-84
2024/04/12 03:49:15;;;;;;;14.97;9.83;;;5.40;99.90;;;;;;5479726;26;20075;-84
2024/04/12 03:51:45;;;;;;;13.33;9.87;;;5.40;99.90;;;;;;5447666;26;20000;-84
2024/04/12 03:54:12;;;;;;;13.43;9.73;;;5.40;99.90;;;;;;5479371;26;20059;-84
2024/04/12 03:56:38;;;;;;;17.57;9.47;;;5.30;99.90;;;;;;5478631;26;20062;-84
2024/04/12 03:59:04;;;;;;;14.80;10.03;;;5.30;99.90;;;;;;5481185;26;20017;-83
2024/04/12 04:01:31;;;;;;;15.13;10.23;;;5.30;99.90;;;;;;5482380;26;20052;-84
2024/04/12 04:04:10;;;;;;;16.40;10.93;;;5.30;99.90;;;;;;5482383;26;20020;-84
2024/04/12 04:06:37;;;;;;;15.30;10.63;;;5.30;99.90;;;;;;5478649;26;19998;-84
2024/04/12 04:09:05;;;;;;;16.70;11.17;;;5.20;99.90;;;;;;5479590;26;20075;-84
2024/04/12 04:11:42;;;;;;;17.70;11.60;;;5.30;99.90;;;;;;5446640;26;20001;-84
2024/04/12 04:14:11;;;;;;;14.43;11.37;;;5.30;99.90;;;;;;5447751;26;20018;-84
2024/04/12 04:16:36;;;;;;;13.80;11.03;;;5.30;99.90;;;;;;5476671;26;20025;-84
2024/04/12 04:19:03;;;;;;;14.63;10.73;;;5.30;99.90;;;;;;5476153;26;19991;-84
2024/04/12 04:21:33;;;;;;;14.30;11.87;;;5.30;99.90;;;;;;5476540;26;20445;-86
2024/04/12 04:24:08;;;;;;;15.40;12.20;;;5.30;99.90;;;;;;5474130;26;20002;-86
2024/04/12 04:26:38;;;;;;;19.53;12.80;;;5.20;99.90;;;;;;5476034;26;19994;-86
2024/04/12 04:29:09;;;;;;;18.93;11.87;;;5.30;99.90;;;;;;5473165;26;19998;-86
2024/04/12 04:31:49;;;;;;;18.17;12.30;;;5.20;99.90;;;;;;5470416;26;20002;-86
2024/04/12 04:34:17;;;;;;;18.63;13.20;;;5.20;99.90;;;;;;5473697;26;20013;-87
2024/04/12 04:36:43;;;;;;;20.53;13.97;;;5.20;99.90;;;;;;5473068;26;20018;-85
2024/04/12 04:39:15;;;;;;;15.13;13.07;;;5.20;99.90;;;;;;5472358;26;20018;-86
2024/04/12 04:41:43;;;;;;;18.77;13.30;;;5.30;99.90;;;;;;5472881;26;20013;-85
2024/04/12 04:44:08;;;;;;;19.10;13.03;;;5.30;99.90;;;;;;5473081;26;20006;-86
2024/04/12 04:46:34;;;;;;;18.53;13.37;;;5.30;99.90;;;;;;5471920;26;20006;-86
2024/04/12 04:49:00;;;;;;;18.63;13.23;;;5.30;99.90;;;;;;5473370;26;20014;-86
2024/04/12 04:51:25;;;;;;;17.07;13.30;;;5.30;99.90;;;;;;5472143;26;20018;-86
2024/04/12 04:53:54;;;;;;;18.67;12.27;;;5.30;99.90;;;;;;5473326;26;20010;-87
2024/04/12 04:56:30;;;;;;;18.13;14.97;;;5.40;99.90;;;;;;5472215;26;20006;-87
2024/04/12 04:58:56;;;;;;;22.17;13.53;;;5.40;99.90;;;;;;5472902;26;20002;-86
2024/04/12 05:01:24;;;;;;;17.37;13.77;;;5.40;99.90;;;;;;5469209;26;20006;-86
2024/04/12 05:03:52;;;;;;;22.57;15.87;;;5.50;99.90;;;;;;5468534;26;20090;-86
2024/04/12 05:06:27;;;;;;;20.97;14.70;;;5.50;99.90;;;;;;5471593;26;20002;-86
2024/04/12 05:08:56;;;;;;;20.00;14.73;;;5.50;99.90;;;;;;5472766;26;20234;-87
2024/04/12 05:11:24;;;;;;;19.13;15.23;;;5.60;99.90;;;;;;5469969;26;19994;-86
2024/04/12 05:13:55;;;;;;;20.40;15.90;;;5.60;99.90;;;;;;5436620;26;20009;-87
2024/04/12 05:16:22;;;;;;;20.70;16.20;;;5.70;99.90;;;;;;5470146;26;20002;-86
2024/04/12 05:18:48;;;;;;;19.27;15.90;;;5.70;99.90;;;;;;5469909;26;20044;-87
2024/04/12 05:21:15;;;;;;;20.77;15.70;;;5.80;99.90;;;;;;5470009;26;20013;-85
2024/04/12 05:23:40;;;;;;;23.47;15.83;;;5.90;99.90;;;;;;5471041;26;20018;-86
2024/04/12 05:26:06;;;;;;;18.77;16.77;;;5.90;99.90;;;;;;5472326;26;19998;-86
2024/04/12 05:28:33;;;;;;;20.70;15.83;;;6.00;99.90;;;;;;5471335;26;20006;-87
2024/04/12 05:30:59;;;;;;;20.20;16.20;;;6.00;99.90;;;;;;5472026;26;20078;-86
2024/04/12 05:33:27;;;;;;;21.77;15.77;;;6.20;99.90;;;;;;5472159;26;20017;-88
2024/04/12 05:35:52;;;;;;;17.67;15.10;;;6.20;99.90;;;;;;5471233;26;20046;-86
2024/04/12 05:38:21;;;;;;;22.73;15.03;;;6.30;99.90;;;;;;5471002;26;20009;-88
2024/04/12 05:40:54;;;;;;;17.90;14.60;;;6.40;99.90;;;;;;5470807;26;20782;-86
2024/04/12 05:43:23;;;;;;;17.43;14.70;;;6.50;99.90;;;;;;5471807;26;20002;-86
2024/04/12 05:45:50;;;;;;;18.77;14.00;;;6.50;99.90;;;;;;5472687;26;20013;-86
2024/04/12 05:48:21;;;;;;;17.00;13.80;;;6.70;99.90;;;;;;5472659;26;20037;-87
2024/04/12 05:50:48;;;;;;;24.20;13.53;;;6.80;99.90;;;;;;5472279;26;20344;-86
2024/04/12 05:53:33;;;;;;;21.97;14.37;;;6.90;99.90;;;;;;5436176;26;20081;-86
2024/04/12 05:58:44;;;;;;;16.17;13.40;;;7.10;99.90;;;;;;5472041;26;20041;-86
2024/04/12 06:01:10;;;;;;;19.43;13.70;;;7.20;99.90;;;;;;5471417;26;20047;-85
2024/04/12 06:03:45;;;;;;;17.40;12.80;;;7.30;99.90;;;;;;5470540;26;20010;-86
2024/04/12 06:06:13;;;;;;;16.83;13.25;;;7.40;99.90;;;;;;5469605;26;20002;-86
2024/04/12 06:08:41;;;;;;;17.43;13.10;;;7.50;99.90;;;;;;5470824;26;20002;-86
2024/04/12 06:11:09;;;;;;;17.93;13.10;;;7.70;99.90;;;;;;5470701;26;20061;-86
2024/04/12 06:13:39;;;;;;;18.90;12.57;;;7.80;99.90;;;;;;5466601;26;20086;-86
2024/04/12 06:16:05;;;;;;;16.07;12.93;;;7.90;99.90;;;;;;5470354;26;20018;-85
2024/04/12 06:18:31;;;;;;;14.70;12.07;;;8.10;99.90;;;;;;5434522;26;20067;-86
2024/04/12 06:20:57;;;;;;;14.83;11.40;;;8.10;99.90;;;;;;5469822;26;19994;-86
2024/04/12 06:23:23;;;;;;;14.77;11.90;;;8.30;99.90;;;;;;5438177;26;21811;-86
2024/04/12 06:25:50;;;;;;;13.63;12.17;;;8.40;99.90;;;;;;5470303;26;20007;-85
2024/04/12 06:28:19;;;;;;;16.70;11.47;;;8.50;99.90;;;;;;5474082;26;20041;-86
2024/04/12 06:30:47;;;;;;;18.03;12.60;;;8.60;99.90;;;;;;5470951;26;19995;-86
2024/04/12 06:33:13;;;;;;;15.43;10.37;;;8.70;99.90;;;;;;5472283;26;20000;-86
2024/04/12 06:35:44;;;;;;;12.40;9.70;;;8.80;99.90;;;;;;5433074;26;19999;-86
2024/04/12 06:38:10;;;;;;;15.27;10.80;;;8.90;99.90;;;;;;5470740;26;20451;-86
2024/04/12 06:40:37;;;;;;;15.63;10.43;;;9.00;99.90;;;;;;5470369;26;20006;-85
2024/04/12 06:43:07;;;;;;;14.53;11.33;;;9.10;99.90;;;;;;5468337;26;20400;-86
2024/04/12 06:45:41;;;;;;;14.83;10.70;;;9.20;99.90;;;;;;5468833;26;20049;-87
2024/04/12 06:48:10;;;;;;;12.75;10.50;;;9.30;99.90;;;;;;5431715;26;20006;-87
2024/04/12 06:50:36;;;;;;;15.83;10.70;;;9.40;99.90;;;;;;5467613;26;20014;-86
2024/04/12 06:53:08;;;;;;;13.97;9.30;;;9.50;99.90;;;;;;5463835;26;20006;-86
2024/04/12 06:55:45;;;;;;;14.23;9.97;;;9.60;99.90;;;;;;5466539;26;20120;-87
2024/04/12 06:58:15;;;;;;;14.77;10.47;;;9.70;99.90;;;;;;5468921;26;20351;-86
2024/04/12 07:00:43;;;;;;;13.93;10.13;;;9.80;99.90;;;;;;5471030;26;20446;-87
2024/04/12 07:03:09;;;;;;;16.43;11.23;;;10.00;99.90;;;;;;5468550;26;20002;-86
2024/04/12 07:05:35;;;;;;;12.30;10.80;;;10.10;99.90;;;;;;5468272;26;20769;-86
2024/04/12 07:08:05;;;;;;;13.63;9.80;;;10.30;99.90;;;;;;5468414;26;20040;-87
2024/04/12 07:10:35;;;;;;;12.30;9.50;;;10.40;99.90;;;;;;5468985;26;20010;-86
2024/04/12 07:13:01;;;;;;;11.93;9.30;;;10.50;99.90;;;;;;5468876;26;20049;-86
2024/04/12 07:15:27;;;;;;;11.67;9.23;;;10.70;99.90;;;;;;5468294;26;20002;-87
2024/04/12 07:17:57;;;;;;;18.47;9.77;;;10.90;99.90;;;;;;5468410;26;19998;-86
2024/04/12 07:20:27;;;;;;;10.23;8.33;;;11.00;99.90;;;;;;5430589;26;20078;-86
2024/04/12 07:22:55;;;;;;;13.10;8.77;;;11.10;99.90;;;;;;5468418;26;20006;-86
2024/04/12 07:25:23;;;;;;;11.40;7.80;;;11.30;99.90;;;;;;5467614;26;20017;-86
2024/04/12 07:27:49;;;;;;;14.00;8.23;;;11.50;99.90;;;;;;5470568;26;20009;-86
2024/04/12 07:30:15;;;;;;;13.80;8.30;;;11.70;99.90;;;;;;5472644;26;20006;-86
2024/04/12 07:32:42;;;;;;;13.02;8.35;;;11.80;99.90;;;;;;5439145;26;20021;-87
2024/04/12 07:35:24;;;;;;;10.95;8.70;;;11.90;99.90;;;;;;5470360;26;20448;-87
2024/04/12 07:37:54;;;;;;;11.27;8.85;;;12.10;99.90;;;;;;5467325;26;19995;-86
2024/04/12 07:40:20;;;;;;;12.05;8.32;;;12.10;99.90;;;;;;5433287;26;20454;-87
2024/04/12 07:42:46;;;;;;;12.45;7.60;;;12.20;99.90;;;;;;5465767;26;20106;-87
2024/04/12 07:45:25;;;;;;;12.90;7.72;;;12.30;99.90;;;;;;5467690;26;20010;-87
2024/04/12 07:47:53;;;;;;;14.38;7.50;;;12.50;99.90;;;;;;5466716;26;20036;-87
2024/04/12 07:50:29;;;;;;;16.15;7.97;;;12.50;99.90;;;;;;5469536;26;20085;-87
2024/04/12 07:55:58;;;;;;;13.38;7.60;;;12.70;99.90;;;;;;5476387;26;20544;-87
2024/04/12 07:58:27;;;;;;;11.55;7.70;;;12.90;99.90;;;;;;5478420;26;20001;-87
2024/04/12 08:01:09;;;;;;;9.88;7.57;;;13.00;99.90;;;;;;5477563;26;21805;-86
2024/04/12 08:03:38;;;;;;;11.65;7.13;;;13.20;99.90;;;;;;5474899;26;20403;-87
2024/04/12 08:06:04;;;;;;;12.52;8.05;;;13.30;99.90;;;;;;5476764;26;20017;-88
2024/04/12 08:08:43;;;;;;;11.00;7.85;;;13.50;99.90;;;;;;5451280;26;19998;-86
2024/04/12 08:11:12;;;;;;;11.85;7.65;;;13.60;99.90;;;;;;5482029;26;20797;-88
2024/04/12 08:13:50;;;;;;;10.68;7.00;;;13.80;99.90;;;;;;5481722;26;20010;-88
2024/04/12 08:16:15;;;;;;;13.77;7.30;;;13.90;99.90;;;;;;5480958;26;20051;-85
2024/04/12 08:18:44;;;;;;;12.73;6.65;;;14.10;99.90;;;;;;5480459;26;19998;-86
2024/04/12 08:21:12;;;;;;;14.80;6.53;;;14.20;99.90;;;;;;5483527;26;20047;-88
2024/04/12 08:23:44;;;;;;;9.05;6.03;;;14.30;99.90;;;;;;5483851;26;20005;-87
2024/04/12 08:26:16;;;;;;;9.93;6.00;;;14.40;99.90;;;;;;5482829;26;20002;-84
2024/04/12 08:28:43;;;;;;;11.65;5.88;;;14.60;99.90;;;;;;5478648;26;20074;-86
2024/04/12 08:31:11;;;;;;;9.00;5.80;;;14.70;99.90;;;;;;5481206;26;20061;-85
2024/04/12 08:33:45;;;;;;;10.20;6.28;;;14.80;99.90;;;;;;5481818;26;19998;-88
2024/04/12 08:36:16;;;;;;;14.68;6.30;;;14.90;99.90;;;;;;5449927;26;19998;-87
2024/04/12 08:38:57;;;;;;;10.70;5.57;;;14.90;99.90;;;;;;5479179;26;19995;-87
2024/04/12 08:41:24;;;;;;;11.23;5.88;;;15.00;99.90;;;;;;5479578;26;19998;-88
2024/04/12 08:43:54;;;;;;;12.40;5.93;;;15.10;99.90;;;;;;5479176;26;20389;-86
2024/04/12 08:46:25;;;;;;;10.60;6.25;;;15.30;99.90;;;;;;5479354;26;21189;-88
2024/04/12 08:48:51;;;;;;;13.27;5.93;;;15.40;99.90;;;;;;5479228;26;20002;-87
2024/04/12 08:51:22;;;;;;;9.90;6.32;;;15.40;99.90;;;;;;5477767;26;20017;-88
2024/04/12 08:53:55;;;;;;;10.27;6.30;;;15.40;99.90;;;;;;5478428;26;20035;-86
2024/04/12 08:56:28;;;;;;;10.02;6.18;;;15.50;99.90;;;;;;5475599;26;20127;-86
2024/04/12 08:59:05;;;;;;;10.90;5.63;;;15.60;99.90;;;;;;5482141;26;20008;-86
2024/04/12 09:01:32;;;;;;;7.95;5.78;;;15.60;99.90;;;;;;5477952;26;20014;-90
2024/04/12 09:04:14;;;;;;;10.32;6.78;;;15.80;99.90;;;;;;5483221;26;20012;-87
2024/04/12 09:06:48;;;;;;;11.18;5.97;;;15.90;99.90;;;;;;5478646;26;20012;-87
2024/04/12 09:09:14;;;;;;;10.50;6.65;;;16.20;99.90;;;;;;5443698;26;20029;-87
2024/04/12 09:11:44;;;;;;;9.85;7.13;;;16.30;99.90;;;;;;5480593;26;20005;-86
2024/04/12 09:14:19;;;;;;;11.32;6.68;;;16.30;99.90;;;;;;5445658;26;20001;-87
2024/04/12 09:16:48;;;;;;;9.95;6.97;;;16.30;99.90;;;;;;5479845;26;20010;-88
2024/04/12 09:19:15;;;;;;;11.75;7.05;;;16.40;99.90;;;;;;5476761;26;20446;-86
2024/04/12 09:21:58;;;;;;;12.38;6.43;;;16.50;99.90;;;;;;5480687;26;20454;-86
2024/04/12 09:24:31;;;;;;;9.20;6.32;;;16.70;99.90;;;;;;5448036;26;20020;-87
2024/04/12 09:27:00;;;;;;;11.00;7.03;;;16.70;99.90;;;;;;5444179;26;20017;-93
2024/04/12 09:29:27;;;;;;;12.02;5.97;;;16.70;99.90;;;;;;5478960;26;20462;-87
2024/04/12 09:34:41;;;;;;;9.55;6.25;;;17.00;99.90;;;;;;5478034;26;20127;-87
2024/04/12 09:45:20;;;;;;;9.18;6.50;;;17.40;99.90;;;;;;5479426;26;19955;-88
2024/04/12 10:38:32;;;;;;;11.25;6.65;;;19.70;99.90;;;;;;5429761;26;20016;-77
2024/04/12 10:40:58;;;;;;;8.35;6.05;;;20.10;99.90;;;;;;5464698;26;19998;-78
2024/04/12 10:43:25;;;;;;;9.02;6.68;;;20.20;99.90;;;;;;5461313;26;20016;-73
2024/04/12 10:45:52;;;;;;;9.98;6.68;;;20.10;99.90;;;;;;5457200;26;20153;-72
2024/04/12 10:48:21;;;;;;;10.70;6.63;;;20.10;99.90;;;;;;5457456;26;19998;-72
2024/04/12 10:50:48;;;;;;;11.93;6.72;;;19.90;99.90;;;;;;5456094;26;20006;-73
2024/04/12 10:53:17;;;;;;;9.32;7.38;;;19.90;99.90;;;;;;5457901;26;20006;-72
2024/04/12 10:55:47;;;;;;;10.68;7.57;;;19.90;99.90;;;;;;5458974;26;19998;-72
2024/04/12 10:58:14;;;;;;;9.70;7.40;;;19.70;99.90;;;;;;5458771;26;20087;-72
2024/04/12 11:00:48;;;;;;;14.18;7.28;;;19.70;99.90;;;;;;5460103;26;20018;-72
2024/04/12 11:03:23;;;;;;;12.77;7.05;;;19.90;99.90;;;;;;5457945;26;20082;-73
2024/04/12 11:05:50;;;;;;;9.88;6.60;;;20.00;99.90;;;;;;5459098;26;20002;-72
2024/04/12 11:08:15;;;;;;;10.80;6.80;;;20.00;99.90;;;;;;5458243;26;20002;-72
2024/04/12 11:10:54;;;;;;;11.90;6.57;;;20.20;99.90;;;;;;5457848;26;20006;-72
2024/04/12 11:13:29;;;;;;;12.68;7.00;;;20.40;99.90;;;;;;5455289;26;19998;-73
2024/04/12 11:32:15;;;;;;;9.25;7.00;;;21.30;99.90;;;;;;5456076;26;20032;-73
2024/04/12 11:34:42;;;;;;;11.82;7.00;;;21.20;99.90;;;;;;5457555;26;20185;-73
2024/04/12 11:37:13;;;;;;;9.63;6.90;;;21.00;99.90;;;;;;5456035;26;20005;-72
2024/04/12 11:39:41;;;;;;;10.50;7.22;;;21.10;99.90;;;;;;5452863;26;20013;-73
2024/04/12 11:42:10;;;;;;;10.38;7.22;;;21.10;99.90;;;;;;5458305;26;20006;-73
2024/04/12 11:44:36;;;;;;;9.60;6.55;;;21.10;99.90;;;;;;5459355;26;21159;-73
2024/04/12 11:47:03;;;;;;;10.50;7.53;;;21.10;99.90;;;;;;5459811;26;20018;-73
2024/04/12 11:49:45;;;;;;;9.95;7.60;;;21.30;99.90;;;;;;5460169;26;20002;-74
2024/04/12 11:52:17;;;;;;;9.15;6.68;;;21.20;99.90;;;;;;5462048;26;20090;-75
2024/04/12 11:54:46;;;;;;;8.77;7.03;;;21.20;99.90;;;;;;5462039;26;20014;-73
2024/04/12 11:57:12;;;;;;;13.57;8.15;;;21.30;99.90;;;;;;5460445;26;20010;-72
2024/04/12 11:59:38;;;;;;;10.98;7.65;;;21.20;99.90;;;;;;5460776;26;20532;-73
2024/04/12 12:02:05;;;;;;;10.32;6.95;;;21.40;99.90;;;;;;5458629;26;21804;-73
2024/04/12 12:04:32;;;;;;;9.63;7.35;;;21.60;99.90;;;;;;5459819;26;20458;-73
2024/04/12 12:07:00;;;;;;;11.77;7.95;;;21.60;99.90;;;;;;5458438;26;20006;-72
2024/04/12 12:09:31;;;;;;;9.98;7.88;;;21.90;99.90;;;;;;5458403;26;19998;-73
2024/04/12 12:11:57;;;;;;;12.15;8.23;;;22.10;99.90;;;;;;5460435;26;20016;-72
2024/04/12 12:14:25;;;;;;;9.90;7.85;;;21.90;99.90;;;;;;5459381;26;20023;-73
2024/04/12 12:16:51;;;;;;;7.78;6.97;;;21.90;99.90;;;;;;5456468;26;20109;-75
2024/04/12 12:19:18;;;;;;;10.05;7.57;;;21.80;99.90;;;;;;5455429;26;20042;-76
2024/04/12 12:21:47;;;;;;;9.57;7.63;;;22.00;99.90;;;;;;5463891;26;20010;-79
2024/04/12 12:24:14;;;;;;;14.00;7.90;;;22.10;99.90;;;;;;5459819;26;20013;-75
2024/04/12 12:26:40;;;;;;;10.60;7.72;;;21.80;99.90;;;;;;5455447;26;20096;-76
2024/04/12 12:29:06;;;;;;;12.98;7.93;;;21.70;99.90;;;;;;5459688;26;20050;-74
2024/04/12 12:31:32;;;;;;;9.65;6.82;;;21.70;99.90;;;;;;5458847;26;20737;-74
2024/04/12 12:33:58;;;;;;;9.82;7.07;;;21.90;99.90;;;;;;5456653;26;19998;-73
2024/04/12 12:36:25;;;;;;;11.25;7.75;;;22.30;99.90;;;;;;5455519;26;20125;-74
2024/04/12 12:38:51;;;;;;;10.27;8.88;;;22.20;99.90;;;;;;5456221;26;20323;-75
2024/04/12 12:41:17;;;;;;;10.27;7.75;;;22.00;99.90;;;;;;5457314;26;20020;-76
2024/04/12 12:43:47;;;;;;;14.60;7.85;;;21.90;99.90;;;;;;5456626;26;20012;-76
2024/04/12 12:46:16;;;;;;;10.02;7.82;;;21.90;99.90;;;;;;5456312;26;20013;-74
2024/04/12 12:48:42;;;;;;;10.77;7.25;;;22.00;99.90;;;;;;5459244;26;19994;-74
2024/04/12 12:51:09;;;;;;;11.05;6.65;;;22.30;99.90;;;;;;5458419;26;20882;-79
2024/04/12 12:53:38;;;;;;;11.88;8.10;;;22.40;99.90;;;;;;5454509;26;19994;-80
2024/04/12 12:56:07;;;;;;;16.20;8.00;;;22.40;99.90;;;;;;5458982;26;20021;-81
2024/04/12 12:58:40;;;;;;;8.48;6.93;;;22.30;99.90;;;;;;5425031;26;20012;-80
2024/04/12 13:01:07;;;;;;;10.68;6.43;;;22.10;99.90;;;;;;5485340;25;20442;-80
2024/04/12 13:03:36;;;;;;;9.95;7.80;;;22.00;99.90;;;;;;5460642;26;20055;-80
2024/04/12 13:06:06;;;;;;;9.90;7.30;;;22.00;99.90;;;;;;5461852;26;20126;-80
2024/04/12 13:08:36;;;;;;;8.40;5.85;;;22.00;99.90;;;;;;5462326;26;20002;-79
2024/04/12 13:11:08;;;;;;;9.10;6.32;;;22.00;99.90;;;;;;5426889;26;19998;-82
2024/04/12 13:13:39;;;;;;;10.40;6.18;;;21.80;99.90;;;;;;5458476;26;21098;-79
2024/04/12 13:16:10;;;;;;;10.25;5.50;;;21.70;99.90;;;;;;5460044;26;20005;-86
2024/04/12 13:18:43;;;;;;;11.65;6.10;;;21.80;99.90;;;;;;5463020;26;19998;-86
2024/04/12 13:21:12;;;;;;;10.85;6.10;;;21.90;99.90;;;;;;5455636;26;20108;-74
2024/04/12 13:23:39;;;;;;;8.82;5.78;;;22.00;99.90;;;;;;5455765;26;20174;-75
2024/04/12 13:26:09;;;;;;;8.68;5.53;;;22.00;99.90;;;;;;5457371;26;20006;-75
2024/04/12 13:28:38;;;;;;;7.70;5.07;;;22.00;99.90;;;;;;5456454;26;20005;-74
2024/04/12 13:31:03;;;;;;;9.00;6.05;;;22.10;99.90;;;;;;5455458;26;20850;-74
2024/04/12 13:33:30;;;;;;;9.38;6.28;;;22.10;99.90;;;;;;5456540;26;20079;-75
2024/04/12 13:35:55;;;;;;;10.40;6.05;;;22.00;99.90;;;;;;5455923;26;20012;-73
2024/04/12 13:38:21;;;;;;;12.15;5.80;;;22.00;99.90;;;;;;5455169;26;19998;-74
2024/04/12 13:40:49;;;;;;;10.15;6.13;;;22.20;99.90;;;;;;5456814;26;20468;-74
2024/04/12 13:43:16;;;;;;;11.48;7.85;;;22.30;99.90;;;;;;5453920;26;20005;-74
2024/04/12 13:51:21;;;;;;;10.95;6.32;;;21.70;99.90;;;;;;5452775;26;20013;-74
2024/04/12 13:53:51;;;;;;;10.85;6.63;;;21.40;99.90;;;;;;5449540;26;20006;-76
2024/04/12 13:56:27;;;;;;;10.90;7.13;;;21.30;99.90;;;;;;5449745;26;20002;-76
2024/04/12 13:58:58;;;;;;;11.63;6.32;;;21.10;99.90;;;;;;5457738;26;21757;-74
2024/04/12 14:01:30;;;;;;;11.55;7.10;;;21.00;99.90;;;;;;5455140;26;20017;-74
2024/04/12 14:04:04;;;;;;;10.85;6.13;;;21.00;99.90;;;;;;5455979;26;20046;-74
2024/04/12 14:06:34;;;;;;;8.93;5.70;;;20.90;99.90;;;;;;5456572;26;20010;-73
2024/04/12 14:09:01;;;;;;;6.90;5.05;;;20.80;99.90;;;;;;5454922;26;20332;-74
2024/04/12 14:11:27;;;;;;;10.00;5.35;;;20.90;99.90;;;;;;5455214;26;20005;-75
2024/04/12 14:13:54;;;;;;;5.78;4.50;;;20.80;99.90;;;;;;5457157;26;20378;-75
2024/04/12 14:16:28;;;;;;;7.97;4.45;;;20.80;99.90;;;;;;5458822;26;20006;-74
2024/04/12 14:18:57;;;;;;;10.27;5.00;;;20.90;99.90;;;;;;5451928;26;20814;-74
2024/04/12 14:21:24;;;;;;;9.65;5.68;;;20.90;99.90;;;;;;5456554;26;20017;-75
2024/04/12 14:23:49;;;;;;;8.82;5.32;;;21.00;99.90;;;;;;5455422;26;20152;-76
2024/04/12 14:26:15;;;;;;;10.05;5.47;;;20.90;99.90;;;;;;5453816;25;20013;-74